sensor_id;sensor_type;location;lat;lon;timestamp;temperature;humidity
16532;DHT22;66872;63.142;14.482;2023-12-29T00:01:30;15.20;26.20
16532;DHT22;66872;63.142;14.482;2023-12-29T00:03:56;15.20;26.20
16532;DHT22;66872;63.142;14.482;2023-12-29T00:06:22;15.20;26.20
16532;DHT22;66872;63.142;14.482;2023-12-29T00:08:47;15.20;26.20
16532;DHT22;66872;63.142;14.482;2023-12-29T00:11:17;15.20;26.20
16532;DHT22;66872;63.142;14.482;2023-12-29T00:13:43;15.20;26.30
16532;DHT22;66872;63.142;14.482;2023-12-29T00:16:09;15.10;26.20
16532;DHT22;66872;63.142;14.482;2023-12-29T00:18:37;15.10;26.30
16532;DHT22;66872;63.142;14.482;2023-12-29T00:21:03;15.10;26.30
16532;DHT22;66872;63.142;14.482;2023-12-29T00:23:28;15.10;26.40
16532;DHT22;66872;63.142;14.482;2023-12-29T00:25:54;15.10;26.40
16532;DHT22;66872;63.142;14.482;2023-12-29T00:28:20;15.10;26.40
16532;DHT22;66872;63.142;14.482;2023-12-29T00:30:45;15.10;26.40
16532;DHT22;66872;63.142;14.482;2023-12-29T00:33:11;15.10;26.40
16532;DHT22;66872;63.142;14.482;2023-12-29T00:35:37;15.10;26.40
16532;DHT22;66872;63.142;14.482;2023-12-29T00:38:04;15.10;26.40
16532;DHT22;66872;63.142;14.482;2023-12-29T00:40:31;15.10;26.40
16532;DHT22;66872;63.142;14.482;2023-12-29T00:42:57;15.10;26.40
16532;DHT22;66872;63.142;14.482;2023-12-29T00:45:22;15.10;26.40
16532;DHT22;66872;63.142;14.482;2023-12-29T00:47:48;15.10;26.50
16532;DHT22;66872;63.142;14.482;2023-12-29T00:50:16;15.10;26.40
16532;DHT22;66872;63.142;14.482;2023-12-29T00:52:41;15.10;26.50
16532;DHT22;66872;63.142;14.482;2023-12-29T00:55:07;15.00;26.40
16532;DHT22;66872;63.142;14.482;2023-12-29T00:57:33;15.10;26.50
16532;DHT22;66872;63.142;14.482;2023-12-29T01:00:00;15.10;26.50
16532;DHT22;66872;63.142;14.482;2023-12-29T01:02:25;15.10;26.50
16532;DHT22;66872;63.142;14.482;2023-12-29T01:04:51;15.10;26.50
16532;DHT22;66872;63.142;14.482;2023-12-29T01:07:17;15.00;26.50
16532;DHT22;66872;63.142;14.482;2023-12-29T01:09:42;15.00;26.50
16532;DHT22;66872;63.142;14.482;2023-12-29T01:12:08;15.10;26.50
16532;DHT22;66872;63.142;14.482;2023-12-29T01:14:33;15.10;26.50
16532;DHT22;66872;63.142;14.482;2023-12-29T01:16:59;15.10;26.50
16532;DHT22;66872;63.142;14.482;2023-12-29T01:19:25;15.10;26.50
16532;DHT22;66872;63.142;14.482;2023-12-29T01:21:50;15.10;26.50
16532;DHT22;66872;63.142;14.482;2023-12-29T01:24:16;15.10;26.50
16532;DHT22;66872;63.142;14.482;2023-12-29T01:26:42;15.10;26.50
16532;DHT22;66872;63.142;14.482;2023-12-29T01:29:07;15.10;26.50
16532;DHT22;66872;63.142;14.482;2023-12-29T01:31:33;15.10;26.50
16532;DHT22;66872;63.142;14.482;2023-12-29T01:33:59;15.10;26.50
16532;DHT22;66872;63.142;14.482;2023-12-29T01:36:25;15.10;26.60
16532;DHT22;66872;63.142;14.482;2023-12-29T01:38:50;15.10;26.60
16532;DHT22;66872;63.142;14.482;2023-12-29T01:41:19;15.10;26.60
16532;DHT22;66872;63.142;14.482;2023-12-29T01:46:31;15.10;26.50
16532;DHT22;66872;63.142;14.482;2023-12-29T01:48:59;15.10;26.60
16532;DHT22;66872;63.142;14.482;2023-12-29T01:51:26;15.10;26.60
16532;DHT22;66872;63.142;14.482;2023-12-29T01:53:53;15.10;26.60
16532;DHT22;66872;63.142;14.482;2023-12-29T01:56:20;15.10;26.60
16532;DHT22;66872;63.142;14.482;2023-12-29T01:58:49;15.10;26.70
16532;DHT22;66872;63.142;14.482;2023-12-29T02:01:18;15.10;26.60
16532;DHT22;66872;63.142;14.482;2023-12-29T02:03:44;15.10;26.70
16532;DHT22;66872;63.142;14.482;2023-12-29T02:06:10;15.10;26.60
16532;DHT22;66872;63.142;14.482;2023-12-29T02:08:37;15.10;26.60
16532;DHT22;66872;63.142;14.482;2023-12-29T02:11:04;15.10;26.60
16532;DHT22;66872;63.142;14.482;2023-12-29T02:13:30;15.10;26.60
16532;DHT22;66872;63.142;14.482;2023-12-29T02:15:58;15.10;26.50
16532;DHT22;66872;63.142;14.482;2023-12-29T02:18:26;15.10;26.60
16532;DHT22;66872;63.142;14.482;2023-12-29T02:20:55;15.10;26.50
16532;DHT22;66872;63.142;14.482;2023-12-29T02:23:21;15.10;26.50
16532;DHT22;66872;63.142;14.482;2023-12-29T02:25:46;15.10;26.50
16532;DHT22;66872;63.142;14.482;2023-12-29T02:28:23;15.10;26.50
16532;DHT22;66872;63.142;14.482;2023-12-29T02:31:01;15.10;26.50
16532;DHT22;66872;63.142;14.482;2023-12-29T02:33:33;15.10;26.50
16532;DHT22;66872;63.142;14.482;2023-12-29T02:36:00;15.10;26.50
16532;DHT22;66872;63.142;14.482;2023-12-29T02:38:28;15.10;26.50
16532;DHT22;66872;63.142;14.482;2023-12-29T02:40:58;15.10;26.50
16532;DHT22;66872;63.142;14.482;2023-12-29T02:43:24;15.10;26.50
16532;DHT22;66872;63.142;14.482;2023-12-29T02:45:50;15.10;26.50
16532;DHT22;66872;63.142;14.482;2023-12-29T02:48:15;15.10;26.50
16532;DHT22;66872;63.142;14.482;2023-12-29T02:50:41;15.10;26.60
16532;DHT22;66872;63.142;14.482;2023-12-29T02:53:08;15.10;26.50
16532;DHT22;66872;63.142;14.482;2023-12-29T02:55:34;15.10;26.50
16532;DHT22;66872;63.142;14.482;2023-12-29T02:57:59;15.20;26.60
16532;DHT22;66872;63.142;14.482;2023-12-29T03:00:25;15.10;26.60
16532;DHT22;66872;63.142;14.482;2023-12-29T03:02:51;15.10;26.60
16532;DHT22;66872;63.142;14.482;2023-12-29T03:05:16;15.10;26.60
16532;DHT22;66872;63.142;14.482;2023-12-29T03:07:42;15.10;26.60
16532;DHT22;66872;63.142;14.482;2023-12-29T03:10:08;15.10;26.50
16532;DHT22;66872;63.142;14.482;2023-12-29T03:12:34;15.10;26.50
16532;DHT22;66872;63.142;14.482;2023-12-29T03:14:59;15.20;26.60
16532;DHT22;66872;63.142;14.482;2023-12-29T03:17:25;15.10;26.50
16532;DHT22;66872;63.142;14.482;2023-12-29T03:19:51;15.20;26.60
16532;DHT22;66872;63.142;14.482;2023-12-29T03:22:17;15.20;26.60
16532;DHT22;66872;63.142;14.482;2023-12-29T03:24:43;15.20;26.60
16532;DHT22;66872;63.142;14.482;2023-12-29T03:27:09;15.20;26.60
16532;DHT22;66872;63.142;14.482;2023-12-29T03:29:35;15.20;26.60
16532;DHT22;66872;63.142;14.482;2023-12-29T03:32:01;15.20;26.50
16532;DHT22;66872;63.142;14.482;2023-12-29T03:34:27;15.20;26.50
16532;DHT22;66872;63.142;14.482;2023-12-29T03:36:52;15.20;26.50
16532;DHT22;66872;63.142;14.482;2023-12-29T03:39:18;15.20;26.50
16532;DHT22;66872;63.142;14.482;2023-12-29T03:41:44;15.20;26.50
16532;DHT22;66872;63.142;14.482;2023-12-29T03:44:09;15.20;26.50
16532;DHT22;66872;63.142;14.482;2023-12-29T03:46:35;15.20;26.50
16532;DHT22;66872;63.142;14.482;2023-12-29T03:49:01;15.20;27.00
16532;DHT22;66872;63.142;14.482;2023-12-29T03:51:28;15.20;26.50
16532;DHT22;66872;63.142;14.482;2023-12-29T03:53:54;15.20;26.50
16532;DHT22;66872;63.142;14.482;2023-12-29T03:56:19;15.20;26.70
16532;DHT22;66872;63.142;14.482;2023-12-29T03:58:45;15.20;26.50
16532;DHT22;66872;63.142;14.482;2023-12-29T04:01:12;15.20;26.50
16532;DHT22;66872;63.142;14.482;2023-12-29T04:03:38;15.20;26.50
16532;DHT22;66872;63.142;14.482;2023-12-29T04:06:05;15.20;26.50
16532;DHT22;66872;63.142;14.482;2023-12-29T04:08:31;15.20;26.50
16532;DHT22;66872;63.142;14.482;2023-12-29T04:10:57;15.20;26.50
16532;DHT22;66872;63.142;14.482;2023-12-29T04:13:22;15.20;26.60
16532;DHT22;66872;63.142;14.482;2023-12-29T04:15:48;15.20;26.60
16532;DHT22;66872;63.142;14.482;2023-12-29T04:18:14;15.20;26.60
16532;DHT22;66872;63.142;14.482;2023-12-29T04:20:39;15.20;26.50
16532;DHT22;66872;63.142;14.482;2023-12-29T04:23:06;15.20;26.50
16532;DHT22;66872;63.142;14.482;2023-12-29T04:25:32;15.20;26.50
16532;DHT22;66872;63.142;14.482;2023-12-29T04:27:58;15.20;26.50
16532;DHT22;66872;63.142;14.482;2023-12-29T04:30:24;15.20;26.50
16532;DHT22;66872;63.142;14.482;2023-12-29T04:32:49;15.20;26.50
16532;DHT22;66872;63.142;14.482;2023-12-29T04:35:15;15.20;26.50
16532;DHT22;66872;63.142;14.482;2023-12-29T04:37:44;15.20;26.50
16532;DHT22;66872;63.142;14.482;2023-12-29T04:40:11;15.20;26.40
16532;DHT22;66872;63.142;14.482;2023-12-29T04:42:37;15.20;26.50
16532;DHT22;66872;63.142;14.482;2023-12-29T04:45:04;15.20;26.40
16532;DHT22;66872;63.142;14.482;2023-12-29T04:47:30;15.20;26.50
16532;DHT22;66872;63.142;14.482;2023-12-29T04:49:56;15.20;26.50
16532;DHT22;66872;63.142;14.482;2023-12-29T04:52:21;15.20;26.50
16532;DHT22;66872;63.142;14.482;2023-12-29T04:54:47;15.10;26.40
16532;DHT22;66872;63.142;14.482;2023-12-29T04:57:13;15.10;26.40
16532;DHT22;66872;63.142;14.482;2023-12-29T04:59:39;15.10;26.50
16532;DHT22;66872;63.142;14.482;2023-12-29T05:02:05;15.20;26.50
16532;DHT22;66872;63.142;14.482;2023-12-29T05:04:30;15.10;26.40
16532;DHT22;66872;63.142;14.482;2023-12-29T05:06:56;15.20;26.50
16532;DHT22;66872;63.142;14.482;2023-12-29T05:09:22;15.20;26.50
16532;DHT22;66872;63.142;14.482;2023-12-29T05:11:48;15.10;26.50
16532;DHT22;66872;63.142;14.482;2023-12-29T05:14:13;15.10;26.60
16532;DHT22;66872;63.142;14.482;2023-12-29T05:16:43;15.10;26.60
16532;DHT22;66872;63.142;14.482;2023-12-29T05:19:09;15.20;26.60
16532;DHT22;66872;63.142;14.482;2023-12-29T05:21:35;15.20;26.60
16532;DHT22;66872;63.142;14.482;2023-12-29T05:24:00;15.10;26.60
16532;DHT22;66872;63.142;14.482;2023-12-29T05:26:26;15.20;26.70
16532;DHT22;66872;63.142;14.482;2023-12-29T05:28:52;15.10;26.60
16532;DHT22;66872;63.142;14.482;2023-12-29T05:31:18;15.20;26.70
16532;DHT22;66872;63.142;14.482;2023-12-29T05:33:44;15.20;26.70
16532;DHT22;66872;63.142;14.482;2023-12-29T05:36:10;15.20;26.60
16532;DHT22;66872;63.142;14.482;2023-12-29T05:38:37;15.20;26.70
16532;DHT22;66872;63.142;14.482;2023-12-29T05:41:04;15.20;26.70
16532;DHT22;66872;63.142;14.482;2023-12-29T05:43:33;15.20;26.70
16532;DHT22;66872;63.142;14.482;2023-12-29T05:46:00;15.20;26.70
16532;DHT22;66872;63.142;14.482;2023-12-29T05:48:25;15.20;26.60
16532;DHT22;66872;63.142;14.482;2023-12-29T05:50:51;15.20;26.60
16532;DHT22;66872;63.142;14.482;2023-12-29T05:53:17;15.20;26.60
16532;DHT22;66872;63.142;14.482;2023-12-29T05:55:44;15.20;26.60
16532;DHT22;66872;63.142;14.482;2023-12-29T05:58:10;15.20;26.60
16532;DHT22;66872;63.142;14.482;2023-12-29T06:00:36;15.20;26.60
16532;DHT22;66872;63.142;14.482;2023-12-29T06:03:02;15.20;26.60
16532;DHT22;66872;63.142;14.482;2023-12-29T06:05:30;15.20;26.60
16532;DHT22;66872;63.142;14.482;2023-12-29T06:07:56;15.20;26.70
16532;DHT22;66872;63.142;14.482;2023-12-29T06:10:21;15.20;26.60
16532;DHT22;66872;63.142;14.482;2023-12-29T06:12:47;15.20;26.60
16532;DHT22;66872;63.142;14.482;2023-12-29T06:15:13;15.20;26.60
16532;DHT22;66872;63.142;14.482;2023-12-29T06:17:41;15.20;26.60
16532;DHT22;66872;63.142;14.482;2023-12-29T06:20:08;15.20;26.60
16532;DHT22;66872;63.142;14.482;2023-12-29T06:22:39;15.20;26.60
16532;DHT22;66872;63.142;14.482;2023-12-29T06:25:09;15.20;26.70
16532;DHT22;66872;63.142;14.482;2023-12-29T06:27:35;15.20;26.70
16532;DHT22;66872;63.142;14.482;2023-12-29T06:30:06;15.20;26.60
16532;DHT22;66872;63.142;14.482;2023-12-29T06:32:32;15.20;26.70
16532;DHT22;66872;63.142;14.482;2023-12-29T06:34:57;15.20;26.70
16532;DHT22;66872;63.142;14.482;2023-12-29T06:37:23;15.20;26.70
16532;DHT22;66872;63.142;14.482;2023-12-29T06:39:49;15.20;26.70
16532;DHT22;66872;63.142;14.482;2023-12-29T06:42:14;15.20;26.70
16532;DHT22;66872;63.142;14.482;2023-12-29T06:44:40;15.20;26.70
16532;DHT22;66872;63.142;14.482;2023-12-29T06:47:05;15.20;26.70
16532;DHT22;66872;63.142;14.482;2023-12-29T06:49:34;15.20;26.70
16532;DHT22;66872;63.142;14.482;2023-12-29T06:52:00;15.20;26.60
16532;DHT22;66872;63.142;14.482;2023-12-29T06:54:25;15.20;26.70
16532;DHT22;66872;63.142;14.482;2023-12-29T06:56:51;15.20;26.60
16532;DHT22;66872;63.142;14.482;2023-12-29T06:59:16;15.20;26.60
16532;DHT22;66872;63.142;14.482;2023-12-29T07:01:44;15.20;26.60
16532;DHT22;66872;63.142;14.482;2023-12-29T07:04:09;15.20;27.10
16532;DHT22;66872;63.142;14.482;2023-12-29T07:06:38;15.20;26.50
16532;DHT22;66872;63.142;14.482;2023-12-29T07:09:04;15.30;26.60
16532;DHT22;66872;63.142;14.482;2023-12-29T07:11:30;15.30;26.60
16532;DHT22;66872;63.142;14.482;2023-12-29T07:13:56;15.20;26.50
16532;DHT22;66872;63.142;14.482;2023-12-29T07:16:22;15.30;26.50
16532;DHT22;66872;63.142;14.482;2023-12-29T07:18:48;15.30;26.50
16532;DHT22;66872;63.142;14.482;2023-12-29T07:21:14;15.30;26.40
16532;DHT22;66872;63.142;14.482;2023-12-29T07:23:40;15.30;26.40
16532;DHT22;66872;63.142;14.482;2023-12-29T07:26:07;15.30;26.40
16532;DHT22;66872;63.142;14.482;2023-12-29T07:28:33;15.30;26.40
16532;DHT22;66872;63.142;14.482;2023-12-29T07:30:59;15.30;26.50
16532;DHT22;66872;63.142;14.482;2023-12-29T07:33:25;15.30;26.50
16532;DHT22;66872;63.142;14.482;2023-12-29T07:35:51;15.30;26.50
16532;DHT22;66872;63.142;14.482;2023-12-29T07:38:16;15.20;26.40
16532;DHT22;66872;63.142;14.482;2023-12-29T07:40:42;15.20;26.40
16532;DHT22;66872;63.142;14.482;2023-12-29T07:43:08;15.30;26.40
16532;DHT22;66872;63.142;14.482;2023-12-29T07:45:33;15.30;26.40
16532;DHT22;66872;63.142;14.482;2023-12-29T07:47:59;15.30;26.40
16532;DHT22;66872;63.142;14.482;2023-12-29T07:50:25;15.30;26.40
16532;DHT22;66872;63.142;14.482;2023-12-29T07:52:51;15.30;26.30
16532;DHT22;66872;63.142;14.482;2023-12-29T07:55:16;15.30;26.40
16532;DHT22;66872;63.142;14.482;2023-12-29T07:57:42;15.30;26.40
16532;DHT22;66872;63.142;14.482;2023-12-29T08:00:09;15.30;26.30
16532;DHT22;66872;63.142;14.482;2023-12-29T08:02:35;15.30;26.30
16532;DHT22;66872;63.142;14.482;2023-12-29T08:05:01;15.30;26.30
16532;DHT22;66872;63.142;14.482;2023-12-29T08:07:27;15.30;26.30
16532;DHT22;66872;63.142;14.482;2023-12-29T08:09:53;15.30;26.30
16532;DHT22;66872;63.142;14.482;2023-12-29T08:12:18;15.30;26.30
16532;DHT22;66872;63.142;14.482;2023-12-29T08:14:44;15.30;26.30
16532;DHT22;66872;63.142;14.482;2023-12-29T08:17:10;15.30;26.50
16532;DHT22;66872;63.142;14.482;2023-12-29T08:19:36;15.30;26.30
16532;DHT22;66872;63.142;14.482;2023-12-29T08:22:02;15.30;26.30
16532;DHT22;66872;63.142;14.482;2023-12-29T08:24:28;15.30;26.30
16532;DHT22;66872;63.142;14.482;2023-12-29T08:26:53;15.30;26.30
16532;DHT22;66872;63.142;14.482;2023-12-29T08:29:19;15.30;26.30
16532;DHT22;66872;63.142;14.482;2023-12-29T08:31:45;15.30;26.30
16532;DHT22;66872;63.142;14.482;2023-12-29T08:34:11;15.30;26.30
16532;DHT22;66872;63.142;14.482;2023-12-29T08:36:37;15.30;26.40
16532;DHT22;66872;63.142;14.482;2023-12-29T08:39:03;15.30;26.40
16532;DHT22;66872;63.142;14.482;2023-12-29T08:41:28;15.20;26.30
16532;DHT22;66872;63.142;14.482;2023-12-29T08:43:54;15.30;26.40
16532;DHT22;66872;63.142;14.482;2023-12-29T08:46:20;15.30;26.30
16532;DHT22;66872;63.142;14.482;2023-12-29T08:48:46;15.30;26.30
16532;DHT22;66872;63.142;14.482;2023-12-29T08:51:12;15.30;26.30
16532;DHT22;66872;63.142;14.482;2023-12-29T08:53:37;15.30;26.40
16532;DHT22;66872;63.142;14.482;2023-12-29T08:56:03;15.30;26.40
16532;DHT22;66872;63.142;14.482;2023-12-29T08:58:29;15.30;26.40
16532;DHT22;66872;63.142;14.482;2023-12-29T09:00:55;15.30;26.40
16532;DHT22;66872;63.142;14.482;2023-12-29T09:03:21;15.30;26.40
16532;DHT22;66872;63.142;14.482;2023-12-29T09:05:47;15.30;26.50
16532;DHT22;66872;63.142;14.482;2023-12-29T09:08:12;15.20;26.40
16532;DHT22;66872;63.142;14.482;2023-12-29T09:10:38;15.30;26.50
16532;DHT22;66872;63.142;14.482;2023-12-29T09:13:04;15.30;26.50
16532;DHT22;66872;63.142;14.482;2023-12-29T09:15:30;15.30;26.50
16532;DHT22;66872;63.142;14.482;2023-12-29T09:17:56;15.30;26.90
16532;DHT22;66872;63.142;14.482;2023-12-29T09:20:22;15.30;26.50
16532;DHT22;66872;63.142;14.482;2023-12-29T09:22:47;15.30;26.50
16532;DHT22;66872;63.142;14.482;2023-12-29T09:25:13;15.30;26.50
16532;DHT22;66872;63.142;14.482;2023-12-29T09:27:39;15.30;26.50
16532;DHT22;66872;63.142;14.482;2023-12-29T09:30:06;15.30;26.50
16532;DHT22;66872;63.142;14.482;2023-12-29T09:32:31;15.30;26.50
16532;DHT22;66872;63.142;14.482;2023-12-29T09:34:57;15.30;26.50
16532;DHT22;66872;63.142;14.482;2023-12-29T09:37:23;15.30;26.50
16532;DHT22;66872;63.142;14.482;2023-12-29T09:39:48;15.30;26.50
16532;DHT22;66872;63.142;14.482;2023-12-29T09:42:20;15.30;26.50
16532;DHT22;66872;63.142;14.482;2023-12-29T09:44:50;15.30;26.50
16532;DHT22;66872;63.142;14.482;2023-12-29T09:47:22;15.30;26.50
16532;DHT22;66872;63.142;14.482;2023-12-29T09:49:53;15.30;26.50
16532;DHT22;66872;63.142;14.482;2023-12-29T09:52:21;15.30;26.50
16532;DHT22;66872;63.142;14.482;2023-12-29T09:54:49;15.30;26.80
16532;DHT22;66872;63.142;14.482;2023-12-29T09:57:17;15.30;26.60
16532;DHT22;66872;63.142;14.482;2023-12-29T09:59:43;15.30;26.80
16532;DHT22;66872;63.142;14.482;2023-12-29T10:02:17;15.30;26.60
16532;DHT22;66872;63.142;14.482;2023-12-29T10:04:43;15.30;26.60
16532;DHT22;66872;63.142;14.482;2023-12-29T10:07:25;15.30;26.60
16532;DHT22;66872;63.142;14.482;2023-12-29T10:10:01;15.30;26.60
16532;DHT22;66872;63.142;14.482;2023-12-29T10:12:29;15.30;26.60
16532;DHT22;66872;63.142;14.482;2023-12-29T10:17:57;15.30;26.60
16532;DHT22;66872;63.142;14.482;2023-12-29T10:20:44;15.30;26.50
16532;DHT22;66872;63.142;14.482;2023-12-29T10:23:13;15.30;26.50
16532;DHT22;66872;63.142;14.482;2023-12-29T10:25:42;15.30;26.50
16532;DHT22;66872;63.142;14.482;2023-12-29T10:28:09;15.30;26.50
16532;DHT22;66872;63.142;14.482;2023-12-29T10:30:35;15.30;26.50
16532;DHT22;66872;63.142;14.482;2023-12-29T10:33:01;15.30;26.50
16532;DHT22;66872;63.142;14.482;2023-12-29T10:35:29;15.30;26.60
16532;DHT22;66872;63.142;14.482;2023-12-29T10:38:07;15.30;26.60
16532;DHT22;66872;63.142;14.482;2023-12-29T10:40:33;15.30;26.50
16532;DHT22;66872;63.142;14.482;2023-12-29T10:42:59;15.30;26.50
16532;DHT22;66872;63.142;14.482;2023-12-29T10:45:33;15.40;26.50
16532;DHT22;66872;63.142;14.482;2023-12-29T10:48:02;15.30;26.50
16532;DHT22;66872;63.142;14.482;2023-12-29T10:50:28;15.30;26.40
16532;DHT22;66872;63.142;14.482;2023-12-29T10:53:15;15.40;26.50
16532;DHT22;66872;63.142;14.482;2023-12-29T10:55:44;15.40;26.50
16532;DHT22;66872;63.142;14.482;2023-12-29T10:58:09;15.40;26.50
16532;DHT22;66872;63.142;14.482;2023-12-29T11:00:35;15.40;26.50
16532;DHT22;66872;63.142;14.482;2023-12-29T11:03:01;15.40;26.50
16532;DHT22;66872;63.142;14.482;2023-12-29T11:05:27;15.30;26.40
16532;DHT22;66872;63.142;14.482;2023-12-29T11:07:54;15.30;26.50
16532;DHT22;66872;63.142;14.482;2023-12-29T11:10:21;15.40;26.50
16532;DHT22;66872;63.142;14.482;2023-12-29T11:12:48;15.30;26.40
16532;DHT22;66872;63.142;14.482;2023-12-29T11:15:14;15.30;26.50
16532;DHT22;66872;63.142;14.482;2023-12-29T11:17:42;15.30;26.50
16532;DHT22;66872;63.142;14.482;2023-12-29T11:20:18;15.30;26.50
16532;DHT22;66872;63.142;14.482;2023-12-29T11:22:46;15.30;26.50
16532;DHT22;66872;63.142;14.482;2023-12-29T11:25:12;15.40;26.50
16532;DHT22;66872;63.142;14.482;2023-12-29T11:27:39;15.40;26.50
16532;DHT22;66872;63.142;14.482;2023-12-29T11:30:06;15.40;26.40
16532;DHT22;66872;63.142;14.482;2023-12-29T11:35:19;15.40;26.40
16532;DHT22;66872;63.142;14.482;2023-12-29T11:43:30;15.40;26.40
16532;DHT22;66872;63.142;14.482;2023-12-29T11:45:56;15.40;26.40
16532;DHT22;66872;63.142;14.482;2023-12-29T11:48:53;15.40;26.40
16532;DHT22;66872;63.142;14.482;2023-12-29T11:51:34;15.40;26.40
16532;DHT22;66872;63.142;14.482;2023-12-29T11:54:03;15.40;26.40
16532;DHT22;66872;63.142;14.482;2023-12-29T11:56:34;15.40;26.40
16532;DHT22;66872;63.142;14.482;2023-12-29T11:59:17;15.40;26.40
16532;DHT22;66872;63.142;14.482;2023-12-29T12:01:48;15.40;26.40
16532;DHT22;66872;63.142;14.482;2023-12-29T12:09:48;15.40;26.40
16532;DHT22;66872;63.142;14.482;2023-12-29T12:12:39;15.30;26.30
16532;DHT22;66872;63.142;14.482;2023-12-29T12:17:52;15.40;26.40
16532;DHT22;66872;63.142;14.482;2023-12-29T12:20:18;15.40;26.40
16532;DHT22;66872;63.142;14.482;2023-12-29T12:22:44;15.40;26.40
16532;DHT22;66872;63.142;14.482;2023-12-29T12:25:12;15.40;26.40
16532;DHT22;66872;63.142;14.482;2023-12-29T12:27:38;15.40;26.30
16532;DHT22;66872;63.142;14.482;2023-12-29T12:30:04;15.40;26.30
16532;DHT22;66872;63.142;14.482;2023-12-29T12:32:30;15.40;26.30
16532;DHT22;66872;63.142;14.482;2023-12-29T12:34:56;15.40;26.30
16532;DHT22;66872;63.142;14.482;2023-12-29T12:37:27;15.40;26.30
16532;DHT22;66872;63.142;14.482;2023-12-29T12:39:53;15.40;26.40
16532;DHT22;66872;63.142;14.482;2023-12-29T12:42:20;15.40;26.40
16532;DHT22;66872;63.142;14.482;2023-12-29T12:44:56;15.40;26.30
16532;DHT22;66872;63.142;14.482;2023-12-29T12:47:32;15.40;26.40
16532;DHT22;66872;63.142;14.482;2023-12-29T12:49:59;15.40;26.40
16532;DHT22;66872;63.142;14.482;2023-12-29T12:52:25;15.40;26.40
16532;DHT22;66872;63.142;14.482;2023-12-29T12:54:54;15.30;26.30
16532;DHT22;66872;63.142;14.482;2023-12-29T12:57:21;15.30;26.30
16532;DHT22;66872;63.142;14.482;2023-12-29T12:59:48;15.30;26.30
16532;DHT22;66872;63.142;14.482;2023-12-29T13:02:16;15.40;26.40
16532;DHT22;66872;63.142;14.482;2023-12-29T13:04:42;15.40;26.30
16532;DHT22;66872;63.142;14.482;2023-12-29T13:07:08;15.40;26.40
16532;DHT22;66872;63.142;14.482;2023-12-29T13:09:36;15.30;26.30
16532;DHT22;66872;63.142;14.482;2023-12-29T13:12:09;15.40;26.40
16532;DHT22;66872;63.142;14.482;2023-12-29T13:14:35;15.40;26.40
16532;DHT22;66872;63.142;14.482;2023-12-29T13:17:12;15.40;26.40
16532;DHT22;66872;63.142;14.482;2023-12-29T13:19:38;15.40;26.40
16532;DHT22;66872;63.142;14.482;2023-12-29T13:22:09;15.30;26.40
16532;DHT22;66872;63.142;14.482;2023-12-29T13:24:43;15.30;26.40
16532;DHT22;66872;63.142;14.482;2023-12-29T13:27:08;15.40;26.40
16532;DHT22;66872;63.142;14.482;2023-12-29T13:29:35;15.40;26.40
16532;DHT22;66872;63.142;14.482;2023-12-29T13:34:55;15.40;26.40
16532;DHT22;66872;63.142;14.482;2023-12-29T13:40:39;15.30;26.40
16532;DHT22;66872;63.142;14.482;2023-12-29T13:43:09;15.40;26.50
16532;DHT22;66872;63.142;14.482;2023-12-29T13:45:37;15.30;26.50
16532;DHT22;66872;63.142;14.482;2023-12-29T13:48:05;15.30;26.50
16532;DHT22;66872;63.142;14.482;2023-12-29T13:50:32;15.30;26.50
16532;DHT22;66872;63.142;14.482;2023-12-29T13:52:59;15.40;26.50
16532;DHT22;66872;63.142;14.482;2023-12-29T13:55:25;15.30;26.50
16532;DHT22;66872;63.142;14.482;2023-12-29T13:57:51;15.30;26.50
16532;DHT22;66872;63.142;14.482;2023-12-29T14:00:22;15.40;26.60
16532;DHT22;66872;63.142;14.482;2023-12-29T14:02:58;15.30;26.50
16532;DHT22;66872;63.142;14.482;2023-12-29T14:08:25;15.30;26.50
16532;DHT22;66872;63.142;14.482;2023-12-29T14:10:52;15.40;26.60
16532;DHT22;66872;63.142;14.482;2023-12-29T14:13:19;15.30;26.50
16532;DHT22;66872;63.142;14.482;2023-12-29T14:15:46;15.40;26.60
16532;DHT22;66872;63.142;14.482;2023-12-29T14:21:31;15.30;26.50
16532;DHT22;66872;63.142;14.482;2023-12-29T14:24:13;15.40;26.60
16532;DHT22;66872;63.142;14.482;2023-12-29T14:29:20;15.30;26.60
16532;DHT22;66872;63.142;14.482;2023-12-29T14:31:46;15.40;26.60
16532;DHT22;66872;63.142;14.482;2023-12-29T14:34:13;15.40;26.60
16532;DHT22;66872;63.142;14.482;2023-12-29T14:36:41;15.30;26.50
16532;DHT22;66872;63.142;14.482;2023-12-29T14:39:07;15.40;26.50
16532;DHT22;66872;63.142;14.482;2023-12-29T14:41:33;15.40;26.50
16532;DHT22;66872;63.142;14.482;2023-12-29T14:43:59;15.40;26.50
16532;DHT22;66872;63.142;14.482;2023-12-29T14:46:25;15.40;26.50
16532;DHT22;66872;63.142;14.482;2023-12-29T14:48:52;15.40;26.50
16532;DHT22;66872;63.142;14.482;2023-12-29T14:51:18;15.40;26.50
16532;DHT22;66872;63.142;14.482;2023-12-29T14:53:48;15.40;26.50
16532;DHT22;66872;63.142;14.482;2023-12-29T14:56:14;15.40;26.40
16532;DHT22;66872;63.142;14.482;2023-12-29T14:58:40;15.50;26.40
16532;DHT22;66872;63.142;14.482;2023-12-29T15:01:07;15.40;26.40
16532;DHT22;66872;63.142;14.482;2023-12-29T15:03:33;15.40;26.40
16532;DHT22;66872;63.142;14.482;2023-12-29T15:05:59;15.40;26.40
16532;DHT22;66872;63.142;14.482;2023-12-29T15:08:25;15.40;26.40
16532;DHT22;66872;63.142;14.482;2023-12-29T15:10:53;15.40;26.50
16532;DHT22;66872;63.142;14.482;2023-12-29T15:13:19;15.40;26.50
16532;DHT22;66872;63.142;14.482;2023-12-29T15:15:44;15.40;26.50
16532;DHT22;66872;63.142;14.482;2023-12-29T15:18:10;15.40;26.50
16532;DHT22;66872;63.142;14.482;2023-12-29T15:20:36;15.40;26.50
16532;DHT22;66872;63.142;14.482;2023-12-29T15:23:01;15.40;26.50
16532;DHT22;66872;63.142;14.482;2023-12-29T15:25:28;15.40;26.50
16532;DHT22;66872;63.142;14.482;2023-12-29T15:27:54;15.40;26.50
16532;DHT22;66872;63.142;14.482;2023-12-29T15:30:20;15.40;26.50
16532;DHT22;66872;63.142;14.482;2023-12-29T15:32:46;15.40;26.50
16532;DHT22;66872;63.142;14.482;2023-12-29T15:35:11;15.40;26.60
16532;DHT22;66872;63.142;14.482;2023-12-29T15:37:37;15.40;26.60
16532;DHT22;66872;63.142;14.482;2023-12-29T15:40:03;15.40;26.60
16532;DHT22;66872;63.142;14.482;2023-12-29T15:42:30;15.30;26.60
16532;DHT22;66872;63.142;14.482;2023-12-29T15:44:56;15.40;26.60
16532;DHT22;66872;63.142;14.482;2023-12-29T15:47:21;15.40;26.60
16532;DHT22;66872;63.142;14.482;2023-12-29T15:49:47;15.40;26.50
16532;DHT22;66872;63.142;14.482;2023-12-29T15:52:13;15.50;26.20